Latest Coastal Weather Observations for Kowanyama

IDQ60701

Issued at 6:42 am EST Saturday 2 July 2016 (issued every 10 minutes, with the page automatically refreshed every 10 minutes)

About coastal observations | Map of coastal stations | Coastal observations for QLD | Marine services | Other Formats
Station Details ID: 029038 Name: KOWANYAMA AIRPORT Lat: -15.48 Lon: 141.75 Height: 9.6 m
Data from the previous 72 hours. | See also: Recent months at Kowanyama
Date/Time
EST
Temp
°C
Wind Pressure Rain since
9am
mm
Weather Cloud Vis
km
Sea
Height
m
Swell
Dir  Spd
kts
Gust
kts
hPa Trend Height
m
Period
s
Dir
02/06:30am 16.4 SSE 2 3 1017.0 - 0.0 - - - - - - -
02/06:00am 16.4 SSE 2 4 1016.9 - 0.0 - - - - - - -
02/05:30am 15.9 CALM 0 0 1016.7 - 0.0 - - - - - - -
02/05:00am 16.1 SE 1 3 1016.7 - 0.0 - - - - - - -
02/04:30am 16.5 CALM 0 0 1016.7 - 0.0 - - - - - - -
02/04:00am 16.7 CALM 0 0 1016.7 - 0.0 - - - - - - -
02/03:30am 16.8 CALM 0 0 1016.7 - 0.0 - - - - - - -
02/03:00am 17.2 CALM 0 0 1016.7 - 0.0 - - - - - - -
02/02:30am 17.5 CALM 0 0 1016.7 - 0.0 - - - - - - -
02/02:00am 18.8 SSE 1 4 1017.0 - 0.0 - - - - - - -
02/01:30am 18.4 CALM 0 0 1017.3 - 0.0 - Partly cloudy - - - - -
02/01:00am 19.1 SSW 4 6 1017.4 - 0.0 - Partly cloudy - - - - -
02/12:30am 20.2 E 4 6 1017.5 - 0.0 - Partly cloudy - - - - -
02/12:00am 17.8 CALM 0 0 1017.0 - 0.0 - Partly cloudy - - - - -
 
Date/Time
EST
Temp
°C
Wind Pressure Rain since
9am
mm
Weather Cloud Vis
km
Sea
Height
m
Swell
Dir  Spd
kts
Gust
kts
hPa Trend Height
m
Period
s
Dir
01/11:30pm 18.5 SW 1 3 1017.1 - 0.0 - - - - - - -
01/11:00pm 18.2 CALM 0 0 1017.1 - 0.0 - - - - - - -
01/10:30pm 18.9 CALM 0 0 1017.2 - 0.0 - - - - - - -
01/10:00pm 19.7 CALM 0 2 1017.2 - 0.0 - - - - - - -
01/09:30pm 20.4 SSW 3 5 1017.1 - 0.0 - - - - - - -
01/09:00pm 21.2 SW 4 6 1016.9 - 0.0 - - - - - - -
01/08:30pm 21.2 SW 4 7 1016.7 - 0.0 - - - - - - -
01/08:00pm 22.5 S 3 4 1016.4 - 0.0 - - - - - - -
01/07:30pm 22.8 SSE 3 5 1016.0 - 0.0 - - - - - - -
01/07:00pm 23.1 SE 4 4 1015.6 - 0.0 - - - - - - -
01/06:30pm 24.8 ESE 4 5 1015.3 - 0.0 - - - - - - -
01/06:00pm 27.1 ESE 5 7 1015.1 - 0.0 - - - - - - -
01/05:30pm 28.3 ESE 7 8 1014.7 - 0.0 - - - - - - -
01/05:00pm 29.1 ESE 8 11 1014.4 - 0.0 - - - - - - -
01/04:30pm 29.6 ESE 8 12 1014.2 - 0.0 - - - - - - -
01/04:00pm 30.0 ESE 9 14 1014.1 - 0.0 - - - - - - -
01/03:30pm 29.9 SE 10 15 1014.2 - 0.0 - - - - - - -
01/03:00pm 30.1 SE 11 15 1014.2 - 0.0 - - - - - - -
01/02:30pm 30.1 E 7 15 1014.3 - 0.0 - - - - - - -
01/02:00pm 29.5 SE 9 13 1014.7 - 0.0 - - - - - - -
01/01:30pm 29.6 SE 9 15 1015.1 - 0.0 - - - - - - -
01/01:00pm 29.0 SE 11 16 1015.6 - 0.0 - - - - - - -
01/12:30pm 28.9 SE 10 14 1016.1 - 0.0 - - - - - - -
01/12:00pm 28.8 SE 13 19 1016.7 - 0.0 - - - - - - -
01/11:30am 27.7 ESE 9 14 1017.1 - 0.0 - - - - - - -
01/11:00am 27.4 ESE 10 15 1017.5 - 0.0 - - - - - - -
01/10:30am 27.0 ESE 7 11 1017.8 - 0.0 - - - - - - -
01/10:00am 25.3 ESE 6 10 1018.2 - 0.0 - - - - - - -
01/09:30am 23.8 E 5 7 1018.4 - 0.0 - - - - - - -
01/09:00am 22.4 ESE 3 5 1018.4 - 0.0 - - - - - - -
01/08:30am 19.5 SE 3 4 1018.2 - 0.0 - - - - - - -
01/08:00am 17.0 CALM 0 0 1017.7 - 0.0 - - - - - - -
01/07:30am 15.1 CALM 0 0 1017.5 - 0.0 - - - - - - -
01/07:00am 14.7 CALM 0 0 1017.3 - 0.0 - - - - - - -
01/06:30am 14.7 CALM 0 0 1016.9 - 0.0 - - - - - - -
01/06:00am 15.1 CALM 0 0 1016.7 - 0.0 - - - - - - -
01/05:30am 15.4 CALM 0 0 1016.5 - 0.0 - - - - - - -
01/05:00am 15.5 CALM 0 0 1016.4 - 0.0 - - - - - - -
01/04:30am 15.7 CALM 0 0 1016.3 - 0.0 - - - - - - -
01/04:00am 15.8 CALM 0 0 1016.2 - 0.0 - - - - - - -
01/03:30am 16.1 CALM 0 0 1016.1 - 0.0 - - - - - - -
01/03:00am 16.5 CALM 0 0 1016.1 - 0.0 - - - - - - -
01/02:30am 17.3 CALM 0 0 1016.3 - 0.0 - - - - - - -
01/02:00am 17.6 ENE 6 13 1016.5 - 0.0 - - - - - - -
01/01:30am 17.9 SSE 2 3 1016.3 - 0.0 - - - - - - -
01/01:00am 18.1 CALM 0 0 1016.6 - 0.0 - - - - - - -
01/12:30am 18.7 CALM 0 3 1016.6 - 0.0 - - - - - - -
01/12:00am 19.6 SE 4 5 1016.7 - 0.0 - - - - - - -
 
Date/Time
EST
Temp
°C
Wind Pressure Rain since
9am
mm
Weather Cloud Vis
km
Sea
Height
m
Swell
Dir  Spd
kts
Gust
kts
hPa Trend Height
m
Period
s
Dir
30/11:30pm 20.0 S 3 4 1016.8 - 0.0 - - - - - - -
30/11:00pm 20.0 S 4 5 1016.9 - 0.0 - - - - - - -
30/10:30pm 20.3 S 4 5 1017.2 - 0.0 - - - - - - -
30/10:00pm 20.6 S 4 5 1017.3 - 0.0 - - - - - - -
30/09:30pm 21.1 SSW 5 7 1017.1 - 0.0 - - - - - - -
30/09:00pm 21.8 SSW 5 7 1017.0 - 0.0 - - - - - - -
30/08:30pm 22.5 SSE 6 7 1016.7 - 0.0 - - - - - - -
30/08:00pm 23.0 SSE 5 6 1016.4 - 0.0 - - - - - - -
30/07:30pm 23.2 SSE 5 5 1016.1 - 0.0 - - - - - - -
30/07:00pm 23.7 SSE 3 5 1015.8 - 0.0 - - - - - - -
30/06:30pm 25.1 S 5 6 1015.5 - 0.0 - - - - - - -
30/06:00pm 26.3 SSE 5 6 1015.3 - 0.0 - - - - - - -
30/05:30pm 27.8 SSE 6 8 1015.0 - 0.0 - - - - - - -
30/05:00pm 28.5 SSE 7 10 1014.7 - 0.0 - - - - - - -
30/04:30pm 29.0 SSE 7 10 1014.5 - 0.0 - - - - - - -
30/04:00pm 29.0 SSE 9 13 1014.5 - 0.0 - - - - - - -
30/03:30pm 29.2 SSE 9 14 1014.6 - 0.0 - - - - - - -
30/03:00pm 29.2 SE 9 13 1014.8 - 0.0 - - - - - - -
30/02:30pm 29.0 SE 10 14 1015.1 - 0.0 - - - - - - -
30/02:00pm 28.4 SE 7 14 1015.6 - 0.0 - - - - - - -
30/01:30pm 28.2 ESE 9 13 1016.1 - 0.0 - - - - - - -
30/01:00pm 28.6 ESE 9 14 1016.7 - 0.0 - - - - - - -
30/12:30pm 28.3 E 8 13 1017.3 - 0.0 - - - - - - -
30/12:00pm 27.7 E 9 13 1017.6 - 0.0 - - - - - - -
30/11:30am 27.5 E 8 13 1018.0 - 0.0 - - - - - - -
30/11:00am 26.5 E 8 12 1018.5 - 0.0 - - - - - - -
30/10:30am 25.8 E 7 13 1018.7 - 0.0 - - - - - - -
30/10:00am 24.7 E 7 11 1018.9 - 0.0 - - - - - - -
30/09:30am 23.1 E 7 11 1019.1 - 0.0 - - - - - - -
30/09:00am 21.4 ENE 6 8 1019.0 - 0.0 - - - - - - -
30/08:30am 20.2 E 6 8 1018.5 - 0.0 - - - - - - -
30/08:00am 19.1 ENE 4 5 1018.4 - 0.0 - - - - - - -
30/07:30am 17.7 E 3 4 1018.1 - 0.0 - - - - - - -
30/07:00am 17.5 E 4 5 1017.9 - 0.0 - - - - - - -
30/06:30am 17.8 E 4 5 1017.6 - 0.0 - - - - - - -
30/06:00am 18.0 E 5 7 1017.3 - 0.0 - - - - - - -
30/05:30am 18.3 E 4 6 1017.0 - 0.0 - - - - - - -
30/05:00am 18.4 E 4 5 1017.0 - 0.0 - - - - - - -
30/04:30am 18.7 ENE 4 5 1016.9 - 0.0 - - - - - - -
30/04:00am 19.3 ESE 4 7 1016.8 - 0.0 - - - - - - -
30/03:30am 19.5 E 3 5 1016.9 - 0.0 - - - - - - -
30/03:00am 20.0 E 4 5 1017.1 - 0.0 - - - - - - -
30/02:30am 20.1 E 4 6 1017.2 - 0.0 - - - - - - -
30/02:00am 20.2 E 4 7 1017.5 - 0.0 - - - - - - -
30/01:30am 20.1 E 3 4 1017.6 - 0.0 - - - - - - -
30/01:00am 20.6 E 5 8 1017.7 - 0.0 - - - - - - -
30/12:30am 19.2 E 2 4 1017.6 - 0.0 - - - - - - -
30/12:00am 19.5 CALM 0 0 1017.6 - 0.0 - - - - - - -
 
Date/Time
EST
Temp
°C
Wind Pressure Rain since
9am
mm
Weather Cloud Vis
km
Sea
Height
m
Swell
Dir  Spd
kts
Gust
kts
hPa Trend Height
m
Period
s
Dir
29/11:30pm 20.1 CALM 0 0 1017.6 - 0.0 - - - - - - -
29/11:00pm 20.7 CALM 0 0 1017.4 - 0.0 - Partly cloudy - - - - -
29/10:30pm 21.5 NE 4 7 1017.6 - 0.0 - Cloudy - - - - -
29/10:00pm 21.4 CALM 0 0 1017.2 - 0.0 - Partly cloudy - - - - -
29/09:30pm 21.4 CALM 0 0 1017.0 - 0.0 - - - - - - -
29/09:00pm 21.9 CALM 0 0 1017.0 - 0.0 - - - - - - -
29/08:30pm 22.5 WSW 4 6 1016.7 - 0.0 - - - - - - -
29/08:00pm 23.8 CALM 0 2 1016.4 - 0.0 - - - - - - -
29/07:30pm 23.8 SSE 2 3 1016.0 - 0.0 - - - - - - -
29/07:00pm 23.9 SSE 3 4 1015.6 - 0.0 - - - - - - -
29/06:30pm 25.7 SSE 1 3 1015.4 - 0.0 - - - - - - -
29/06:00pm 27.6 SE 5 6 1015.2 - 0.0 - - - - - - -
29/05:30pm 28.8 ESE 5 7 1014.9 - 0.0 - - - - - - -
29/05:00pm 29.7 ESE 8 10 1014.7 - 0.0 - Partly cloudy - - - - -
29/04:30pm 29.8 ESE 8 10 1014.5 - 0.0 - Partly cloudy - - - - -
29/04:00pm 29.6 ESE 7 10 1014.4 - 0.0 - Partly cloudy - - - - -
29/03:30pm 30.1 E 7 11 1014.4 - 0.0 - Partly cloudy - - - - -
29/03:00pm 30.4 E 7 11 1014.5 - 0.0 - - - - - - -
29/02:30pm 29.8 E 9 12 1014.9 - 0.0 - - - - - - -
29/02:00pm 29.8 E 7 11 1015.2 - 0.0 - - - - - - -
29/01:30pm 29.4 ESE 9 13 1015.7 - 0.0 - - - - - - -
29/01:00pm 29.0 ESE 7 11 1016.3 - 0.0 - - - - - - -
29/12:30pm 28.4 ESE 9 11 1016.8 - 0.0 - - - - - - -
29/12:00pm 27.7 E 8 12 1017.2 - 0.0 - - - - - - -
29/11:30am 27.7 E 7 11 1017.7 - 0.0 - - - - - - -
29/11:00am 27.0 E 9 15 1017.9 - 0.0 - - - - - - -
29/10:30am 26.0 E 10 16 1018.0 - 0.0 - - - - - - -
29/10:00am 25.6 ESE 8 11 1018.1 - 0.0 - - - - - - -
29/09:30am 24.1 E 6 11 1018.2 - 0.0 - - - - - - -
29/09:00am 23.4 ESE 5 7 1018.2 - 0.0 - - - - - - -
29/08:30am 21.6 SE 6 7 1018.0 - 0.0 - - - - - - -
29/08:00am 20.3 ESE 4 5 1017.8 - 0.0 - Partly cloudy - - - - -
29/07:30am 19.1 SE 4 5 1017.6 - 0.0 - Partly cloudy - - - - -
29/07:00am 19.0 SE 3 4 1017.2 - 0.0 - Cloudy - - - - -

Other Formats:

Comma delimited format used in spreadsheet applications
http://www.bom.gov.au/fwo/IDQ60701/IDQ60701.94268.axf

JavaScript Object Notation format (JSON) in row-major order
http://www.bom.gov.au/fwo/IDQ60701/IDQ60701.94268.json